createdAt,value
2019-05-01T00:00:36.529Z,51.20
2019-05-01T00:03:29.239Z,45.30
2019-05-01T00:05:59.938Z,45.40
2019-05-01T00:08:29.977Z,46.37
2019-05-01T00:11:00.024Z,49.57
2019-05-01T00:13:31.074Z,45.30
2019-05-01T00:16:01.166Z,47.67
2019-05-01T00:18:31.294Z,49.03
2019-05-01T00:21:01.603Z,42.93
2019-05-01T00:23:31.700Z,54.30
2019-05-01T00:26:01.794Z,52.00
2019-05-01T00:28:31.995Z,52.20
2019-05-01T00:31:02.115Z,50.80
2019-05-01T00:33:32.153Z,51.30
2019-05-01T00:36:02.199Z,51.47
2019-05-01T00:38:32.260Z,51.73
2019-05-01T00:41:02.279Z,49.30
2019-05-01T00:43:32.334Z,51.80
2019-05-01T00:46:02.376Z,51.67
2019-05-01T00:48:32.417Z,52.43
2019-05-01T00:51:02.549Z,49.43
2019-05-01T00:53:32.571Z,53.37
2019-05-01T00:56:10.739Z,52.23
2019-05-01T00:58:51.783Z,50.87
2019-05-01T01:01:43.833Z,53.50
2019-05-01T01:04:16.232Z,46.20
2019-05-01T01:06:46.307Z,51.17
2019-05-01T01:09:17.319Z,45.90
2019-05-01T01:11:47.378Z,46.10
2019-05-01T01:14:17.418Z,48.03
2019-05-01T01:16:47.481Z,49.67
2019-05-01T01:19:17.502Z,43.60
2019-05-01T01:21:47.554Z,48.63
2019-05-01T01:24:17.598Z,47.03
2019-05-01T01:26:47.684Z,48.83
2019-05-01T01:29:17.734Z,43.73
2019-05-01T01:31:47.805Z,50.77
2019-05-01T01:34:17.841Z,49.00
2019-05-01T01:36:47.958Z,50.57
2019-05-01T01:39:18.030Z,48.53
2019-05-01T01:41:48.207Z,50.10
2019-05-01T01:44:24.293Z,50.97
2019-05-01T01:46:55.137Z,53.50
2019-05-01T01:49:25.164Z,46.47
2019-05-01T01:51:55.200Z,50.93
2019-05-01T01:54:25.446Z,49.77
2019-05-01T01:56:55.499Z,55.37
2019-05-01T01:59:25.547Z,49.63
2019-05-01T02:02:11.067Z,48.83
2019-05-01T02:04:55.695Z,50.70
2019-05-01T02:07:25.816Z,52.00
2019-05-01T02:09:55.878Z,58.47
2019-05-01T02:12:25.921Z,53.37
2019-05-01T02:14:56.104Z,49.97
2019-05-01T02:17:26.138Z,62.93
2019-05-01T02:19:56.185Z,56.90
2019-05-01T02:22:26.260Z,59.40
2019-05-01T02:24:56.300Z,59.17
2019-05-01T02:27:36.241Z,55.23
2019-05-01T02:30:08.340Z,54.67
2019-05-01T02:32:38.438Z,59.27
2019-05-01T02:35:08.481Z,56.77
2019-05-01T02:37:38.547Z,58.93
2019-05-01T02:40:41.785Z,61.13
2019-05-01T02:43:14.424Z,54.47
2019-05-01T02:45:44.591Z,55.63
2019-05-01T02:48:15.365Z,54.43
2019-05-01T02:50:45.476Z,53.73
2019-05-01T02:53:15.666Z,54.73
2019-05-01T02:55:50.198Z,51.63
2019-05-01T02:58:20.259Z,59.10
2019-05-01T03:00:50.319Z,59.73
2019-05-01T03:03:20.360Z,56.60
2019-05-01T03:05:50.430Z,60.40
2019-05-01T03:08:20.472Z,54.00
2019-05-01T03:10:50.524Z,58.30
2019-05-01T03:13:20.553Z,56.50
2019-05-01T03:15:50.632Z,54.73
2019-05-01T03:18:26.243Z,59.83
2019-05-01T03:21:04.507Z,54.00
2019-05-01T03:23:41.428Z,60.77
2019-05-01T03:26:11.498Z,61.83
2019-05-01T03:28:41.541Z,54.37
2019-05-01T03:31:11.600Z,59.77
2019-05-01T03:33:41.662Z,54.50
2019-05-01T03:36:11.705Z,54.67
2019-05-01T03:38:41.731Z,59.33
2019-05-01T03:41:11.838Z,56.43
2019-05-01T03:43:41.920Z,50.77
2019-05-01T03:46:11.986Z,58.23
2019-05-01T03:48:42.004Z,51.93
2019-05-01T03:51:12.066Z,50.27
2019-05-01T03:53:42.147Z,54.23
2019-05-01T03:56:12.201Z,52.27
2019-05-01T03:58:42.235Z,50.90
2019-05-01T04:01:46.123Z,50.97
2019-05-01T04:04:19.217Z,55.60
2019-05-01T04:06:49.266Z,49.50
2019-05-01T04:09:19.296Z,52.47
2019-05-01T04:11:49.339Z,54.40
2019-05-01T04:14:19.415Z,53.00
2019-05-01T04:16:53.027Z,55.40
2019-05-01T04:19:23.089Z,58.83
2019-05-01T04:21:58.474Z,55.57
2019-05-01T04:24:28.786Z,55.33
2019-05-01T04:26:58.917Z,57.10
2019-05-01T04:29:34.960Z,51.07
2019-05-01T04:32:16.993Z,58.43
2019-05-01T04:35:09.023Z,57.83
2019-05-01T04:37:39.050Z,55.17
2019-05-01T04:40:09.107Z,55.30
2019-05-01T04:42:40.200Z,57.10
2019-05-01T04:45:10.278Z,57.47
2019-05-01T04:47:40.324Z,60.40
2019-05-01T04:50:10.372Z,63.27
2019-05-01T04:52:40.577Z,62.17
2019-05-01T04:55:10.631Z,61.70
2019-05-01T04:57:40.688Z,67.17
2019-05-01T05:00:11.230Z,66.07
2019-05-01T05:02:46.208Z,66.90
2019-05-01T05:05:16.260Z,67.37
2019-05-01T05:07:46.410Z,69.13
2019-05-01T05:10:16.479Z,62.00
2019-05-01T05:12:54.414Z,64.43
2019-05-01T05:15:55.568Z,64.80
2019-05-01T05:18:25.613Z,65.83
2019-05-01T05:20:55.682Z,66.17
2019-05-01T05:23:25.714Z,62.67
2019-05-01T05:25:55.806Z,66.17
2019-05-01T05:28:26.322Z,64.03
2019-05-01T05:30:56.385Z,66.77
2019-05-01T05:33:26.723Z,67.00
2019-05-01T05:35:56.766Z,66.77
2019-05-01T05:38:44.252Z,63.63
2019-05-01T05:41:14.398Z,63.67
2019-05-01T05:43:45.405Z,69.77
2019-05-01T05:46:15.440Z,66.10
2019-05-01T05:48:45.495Z,64.80
2019-05-01T05:51:43.841Z,64.50
2019-05-01T05:54:32.832Z,64.03
2019-05-01T05:57:10.388Z,61.17
2019-05-01T05:59:42.992Z,65.60
2019-05-01T06:02:29.578Z,62.43
2019-05-01T06:05:22.366Z,59.43
2019-05-01T06:08:23.286Z,61.00
2019-05-01T06:11:10.694Z,60.30
2019-05-01T06:13:58.981Z,61.77
2019-05-01T06:16:51.998Z,62.47
2019-05-01T06:19:27.987Z,54.07
2019-05-01T06:22:29.048Z,56.73
2019-05-01T06:25:21.187Z,63.53
2019-05-01T06:27:49.263Z,59.97
2019-05-01T06:30:17.560Z,66.40
2019-05-01T06:32:47.711Z,65.63
2019-05-01T06:35:17.766Z,64.87
2019-05-01T06:38:02.716Z,65.20
2019-05-01T06:40:43.438Z,65.23
2019-05-01T06:43:32.836Z,55.43
2019-05-01T06:46:39.841Z,62.97
2019-05-01T06:49:24.103Z,57.27
2019-05-01T06:51:56.731Z,61.80
2019-05-01T06:54:26.758Z,66.23
2019-05-01T06:56:56.816Z,58.93
2019-05-01T06:59:31.391Z,70.40
2019-05-01T07:02:00.244Z,61.07
2019-05-01T07:04:32.284Z,62.20
2019-05-01T07:07:06.742Z,69.20
2019-05-01T07:09:35.166Z,58.73
2019-05-01T07:12:07.485Z,60.97
2019-05-01T07:14:37.515Z,60.47
2019-05-01T07:17:08.951Z,68.60
2019-05-01T07:19:56.914Z,62.37
2019-05-01T07:22:26.986Z,62.23
2019-05-01T07:24:58.942Z,61.20
2019-05-01T07:27:29.783Z,56.63
2019-05-01T07:30:04.967Z,58.50
2019-05-01T07:32:36.478Z,54.33
2019-05-01T07:35:06.771Z,59.07
2019-05-01T07:37:36.823Z,55.20
2019-05-01T07:40:06.859Z,52.13
2019-05-01T07:42:39.316Z,49.53
2019-05-01T07:45:28.280Z,52.27
2019-05-01T07:48:01.048Z,49.43
2019-05-01T07:50:32.620Z,54.87
2019-05-01T07:53:01.976Z,59.90
2019-05-01T07:55:38.033Z,50.50
2019-05-01T07:58:10.307Z,48.00
2019-05-01T08:00:48.806Z,46.27
2019-05-01T08:03:18.855Z,48.27
2019-05-01T08:05:48.898Z,48.63
2019-05-01T08:08:18.968Z,44.73
2019-05-01T08:10:49.007Z,43.10
2019-05-01T08:13:19.078Z,45.17
2019-05-01T08:15:49.106Z,44.00
2019-05-01T08:18:38.168Z,41.83
2019-05-01T08:21:21.265Z,41.30
2019-05-01T08:23:49.998Z,42.57
2019-05-01T08:26:20.023Z,41.53
2019-05-01T08:29:18.078Z,44.07
2019-05-01T08:32:07.046Z,41.43
2019-05-01T08:34:48.462Z,42.17
2019-05-01T08:37:09.362Z,42.13
2019-05-01T08:39:39.684Z,44.07
2019-05-01T08:42:11.094Z,38.67
2019-05-01T08:44:53.525Z,42.57
2019-05-01T08:47:30.602Z,40.83
2019-05-01T08:50:19.998Z,43.20
2019-05-01T08:52:49.643Z,37.73
2019-05-01T08:55:19.721Z,37.60
2019-05-01T08:57:49.796Z,38.73
2019-05-01T09:00:19.843Z,35.20
2019-05-01T09:02:49.874Z,42.40
2019-05-01T09:05:28.866Z,39.63
2019-05-01T09:07:56.130Z,37.87
2019-05-01T09:10:23.411Z,37.13
2019-05-01T09:12:54.418Z,34.50
2019-05-01T09:15:24.461Z,34.03
2019-05-01T09:17:54.490Z,37.83
2019-05-01T09:20:24.607Z,31.10
2019-05-01T09:22:54.783Z,25.43
2019-05-01T09:25:35.321Z,29.00
2019-05-01T09:28:23.054Z,23.73
2019-05-01T09:31:01.618Z,27.57
2019-05-01T09:33:30.923Z,26.97
2019-05-01T09:36:00.792Z,26.20
2019-05-01T09:38:30.832Z,25.03
2019-05-01T09:41:00.870Z,22.80
2019-05-01T09:43:35.453Z,28.50
2019-05-01T09:46:02.657Z,25.77
2019-05-01T09:48:32.782Z,30.97
2019-05-01T09:51:10.214Z,23.63
2019-05-01T09:53:52.750Z,24.83
2019-05-01T09:56:24.462Z,23.83
2019-05-01T09:58:55.495Z,24.00
2019-05-01T10:01:31.716Z,27.90
2019-05-01T10:03:57.303Z,26.40
2019-05-01T10:06:27.330Z,21.90
2019-05-01T10:08:57.388Z,25.23
2019-05-01T10:11:27.444Z,25.17
2019-05-01T10:13:58.375Z,26.97
2019-05-01T10:16:29.231Z,21.37
2019-05-01T10:18:59.271Z,28.43
2019-05-01T10:21:29.321Z,24.57
2019-05-01T10:23:59.359Z,29.70
2019-05-01T10:26:31.076Z,26.00
2019-05-01T10:29:35.218Z,27.43
2019-05-01T10:32:10.779Z,28.77
2019-05-01T10:34:51.194Z,27.20
2019-05-01T10:37:23.579Z,31.97
2019-05-01T10:39:54.000Z,28.20
2019-05-01T10:42:24.723Z,26.23
2019-05-01T10:44:54.752Z,24.83
2019-05-01T10:47:24.799Z,27.73
2019-05-01T10:49:54.828Z,29.13
2019-05-01T10:52:25.048Z,28.97
2019-05-01T10:54:55.071Z,27.27
2019-05-01T10:57:25.203Z,23.27
2019-05-01T10:59:55.234Z,31.03
2019-05-01T11:02:25.299Z,32.73
2019-05-01T11:04:55.376Z,34.73
2019-05-01T11:07:25.426Z,27.77
2019-05-01T11:09:55.473Z,32.87
2019-05-01T11:12:25.536Z,27.23
2019-05-01T11:14:55.567Z,24.60
2019-05-01T11:17:25.609Z,26.60
2019-05-01T11:19:55.717Z,26.57
2019-05-01T11:22:25.751Z,26.70
2019-05-01T11:24:55.785Z,25.80
2019-05-01T11:27:25.839Z,24.67
2019-05-01T11:29:55.863Z,21.27
2019-05-01T11:32:47.886Z,20.60
2019-05-01T11:35:48.994Z,13.27
2019-05-01T11:38:50.250Z,11.03
2019-05-01T11:41:30.545Z,10.43
2019-05-01T11:44:00.887Z,7.90
2019-05-01T11:46:30.900Z,5.20
2019-05-01T11:49:00.940Z,7.07
2019-05-01T11:51:30.997Z,4.80
2019-05-01T11:54:02.279Z,4.53
2019-05-01T11:56:33.768Z,6.10
2019-05-01T11:59:03.907Z,2.33
2019-05-01T12:01:33.942Z,4.73
2019-05-01T12:04:03.967Z,8.53
2019-05-01T12:06:34.020Z,3.40
2019-05-01T12:09:05.750Z,4.03
2019-05-01T12:11:39.023Z,3.57
2019-05-01T12:14:09.128Z,5.13
2019-05-01T12:16:56.746Z,3.42
2019-05-01T12:19:27.112Z,4.67
2019-05-01T12:21:57.141Z,3.45
2019-05-01T12:24:27.178Z,5.77
2019-05-01T12:26:57.201Z,2.10
2019-05-01T12:29:27.265Z,2.95
2019-05-01T12:31:57.272Z,3.70
2019-05-01T12:34:27.320Z,4.87
2019-05-01T12:37:24.203Z,5.72
2019-05-01T12:39:54.262Z,3.15
2019-05-01T12:42:25.139Z,4.47
2019-05-01T12:44:55.174Z,4.20
2019-05-01T12:47:38.170Z,5.40
2019-05-01T12:50:08.380Z,4.73
2019-05-01T12:53:15.255Z,7.43
2019-05-01T12:56:04.290Z,6.37
2019-05-01T12:58:35.769Z,8.80
2019-05-01T13:01:05.932Z,7.90
2019-05-01T13:03:36.003Z,8.30
2019-05-01T13:06:06.053Z,5.97
2019-05-01T13:08:36.152Z,6.57
2019-05-01T13:11:06.164Z,7.63
2019-05-01T13:13:36.245Z,7.43
2019-05-01T13:16:06.247Z,8.90
2019-05-01T13:18:36.279Z,12.23
2019-05-01T13:21:06.336Z,8.48
2019-05-01T13:23:36.349Z,8.58
2019-05-01T13:26:20.937Z,6.43
2019-05-01T13:28:58.821Z,9.67
2019-05-01T13:31:43.346Z,6.53
2019-05-01T13:34:13.369Z,9.70
2019-05-01T13:36:43.416Z,9.07
2019-05-01T13:39:13.465Z,7.03
2019-05-01T13:41:43.514Z,5.63
2019-05-01T13:44:13.564Z,7.60
2019-05-01T13:46:43.579Z,6.40
2019-05-01T13:49:13.618Z,6.80
2019-05-01T13:51:43.633Z,10.37
2019-05-01T13:54:13.692Z,9.70
2019-05-01T13:56:43.837Z,7.10
2019-05-01T13:59:15.191Z,5.10
2019-05-01T14:01:45.222Z,7.73
2019-05-01T14:04:15.939Z,8.30
2019-05-01T14:06:45.949Z,6.70
2019-05-01T14:09:22.221Z,6.97
2019-05-01T14:11:52.256Z,5.97
2019-05-01T14:14:22.311Z,8.03
2019-05-01T14:16:52.327Z,6.83
2019-05-01T14:19:22.391Z,5.83
2019-05-01T14:22:14.777Z,6.50
2019-05-01T14:24:48.778Z,10.43
2019-05-01T14:27:18.800Z,6.27
2019-05-01T14:29:48.841Z,9.37
2019-05-01T14:32:18.869Z,6.40
2019-05-01T14:34:48.929Z,4.87
2019-05-01T14:37:29.066Z,9.77
2019-05-01T14:39:50.688Z,8.00
2019-05-01T14:42:20.732Z,5.53
2019-05-01T14:44:50.911Z,7.47
2019-05-01T14:47:20.897Z,7.47
2019-05-01T14:49:50.962Z,10.20
2019-05-01T14:52:21.027Z,9.47
2019-05-01T14:54:51.040Z,7.97
2019-05-01T14:57:21.168Z,11.13
2019-05-01T14:59:51.224Z,10.00
2019-05-01T15:02:21.330Z,11.70
2019-05-01T15:04:51.381Z,10.13
2019-05-01T15:07:21.414Z,6.73
2019-05-01T15:09:51.533Z,9.77
2019-05-01T15:12:21.548Z,7.63
2019-05-01T15:15:08.566Z,9.10
2019-05-01T15:17:52.831Z,9.80
2019-05-01T15:20:22.882Z,7.03
2019-05-01T15:22:52.984Z,7.50
2019-05-01T15:25:23.033Z,8.17
2019-05-01T15:27:53.059Z,9.53
2019-05-01T15:30:23.112Z,7.17
2019-05-01T15:32:53.126Z,8.90
2019-05-01T15:35:23.176Z,7.20
2019-05-01T15:37:56.884Z,5.37
2019-05-01T15:40:51.090Z,5.83
2019-05-01T15:43:31.543Z,6.27
2019-05-01T15:46:01.595Z,5.57
2019-05-01T15:48:31.627Z,9.17
2019-05-01T15:51:01.666Z,7.23
2019-05-01T15:53:31.680Z,6.50
2019-05-01T15:56:01.733Z,6.30
2019-05-01T15:58:32.632Z,5.17
2019-05-01T16:01:02.684Z,6.43
2019-05-01T16:03:32.778Z,6.50
2019-05-01T16:06:02.828Z,5.57
2019-05-01T16:08:32.859Z,7.80
2019-05-01T16:11:12.718Z,6.17
2019-05-01T16:13:42.740Z,5.73
2019-05-01T16:16:12.785Z,8.00
2019-05-01T16:18:43.785Z,7.30
2019-05-01T16:21:13.852Z,15.40
2019-05-01T16:23:43.876Z,4.33
2019-05-01T16:26:13.904Z,7.63
2019-05-01T16:28:43.969Z,6.83
2019-05-01T16:31:13.977Z,7.33
2019-05-01T16:33:44.018Z,8.93
2019-05-01T16:36:14.053Z,8.03
2019-05-01T16:39:03.790Z,6.57
2019-05-01T16:41:34.209Z,7.40
2019-05-01T16:44:04.229Z,5.27
2019-05-01T16:46:34.269Z,6.13
2019-05-01T16:49:04.335Z,6.10
2019-05-01T16:51:37.070Z,3.87
2019-05-01T16:54:07.466Z,7.07
2019-05-01T16:56:37.499Z,5.70
2019-05-01T16:59:07.545Z,8.03
2019-05-01T17:01:50.540Z,6.03
2019-05-01T17:04:38.283Z,6.27
2019-05-01T17:07:31.125Z,5.53
2019-05-01T17:10:18.413Z,4.80
2019-05-01T17:12:50.341Z,5.97
2019-05-01T17:15:36.573Z,6.20
2019-05-01T17:18:06.636Z,7.33
2019-05-01T17:20:36.671Z,6.50
2019-05-01T17:23:06.820Z,6.77
2019-05-01T17:25:37.789Z,4.80
2019-05-01T17:28:09.285Z,4.77
2019-05-01T17:30:41.044Z,4.30
2019-05-01T17:33:20.157Z,7.23
2019-05-01T17:35:43.253Z,5.03
2019-05-01T17:38:13.404Z,3.80
2019-05-01T17:40:47.416Z,3.67
2019-05-01T17:43:15.467Z,5.20
2019-05-01T17:45:45.525Z,4.57
2019-05-01T17:48:15.672Z,4.07
2019-05-01T17:50:45.692Z,4.37
2019-05-01T17:53:15.735Z,5.80
2019-05-01T17:55:45.775Z,5.63
2019-05-01T17:58:15.818Z,5.17
2019-05-01T18:01:27.955Z,6.43
2019-05-01T18:04:22.544Z,6.70
2019-05-01T18:06:52.918Z,6.93
2019-05-01T18:09:22.949Z,6.23
2019-05-01T18:11:53.734Z,7.47
2019-05-01T18:14:23.886Z,9.67
2019-05-01T18:16:53.957Z,9.97
2019-05-01T18:19:24.015Z,5.67
2019-05-01T18:22:15.996Z,4.57
2019-05-01T18:25:03.617Z,8.37
2019-05-01T18:27:54.508Z,8.27
2019-05-01T18:30:25.244Z,6.13
2019-05-01T18:32:55.268Z,7.70
2019-05-01T18:35:25.328Z,9.10
2019-05-01T18:38:20.330Z,7.73
2019-05-01T18:40:53.959Z,10.47
2019-05-01T18:43:26.932Z,5.70
2019-05-01T18:45:56.965Z,5.30
2019-05-01T18:48:27.023Z,9.30
2019-05-01T18:50:57.104Z,9.50
2019-05-01T18:53:27.166Z,5.60
2019-05-01T18:56:01.367Z,7.20
2019-05-01T18:58:28.956Z,6.30
2019-05-01T19:00:59.225Z,7.03
2019-05-01T19:03:29.990Z,6.77
2019-05-01T19:06:00.103Z,7.30
2019-05-01T19:08:30.136Z,13.10
2019-05-01T19:11:11.859Z,9.53
2019-05-01T19:13:32.107Z,9.60
2019-05-01T19:16:03.428Z,6.50
2019-05-01T19:18:34.666Z,7.80
2019-05-01T19:21:04.703Z,7.10
2019-05-01T19:23:36.247Z,6.80
2019-05-01T19:26:06.895Z,7.03
2019-05-01T19:28:37.352Z,7.03
2019-05-01T19:31:07.440Z,9.17
2019-05-01T19:33:37.500Z,5.93
2019-05-01T19:36:08.563Z,7.67
2019-05-01T19:38:39.271Z,6.97
2019-05-01T19:41:13.934Z,8.83
2019-05-01T19:43:42.142Z,10.67
2019-05-01T19:46:12.512Z,6.70
2019-05-01T19:48:45.487Z,9.50
2019-05-01T19:51:19.136Z,8.53
2019-05-01T19:53:51.771Z,10.07
2019-05-01T19:56:21.400Z,6.00
2019-05-01T19:58:50.642Z,7.77
2019-05-01T20:01:20.730Z,10.33
2019-05-01T20:03:50.748Z,11.27
2019-05-01T20:06:20.798Z,9.53
2019-05-01T20:08:50.925Z,13.50
2019-05-01T20:11:21.056Z,7.67
2019-05-01T20:13:51.101Z,7.37
2019-05-01T20:16:21.829Z,7.40
2019-05-01T20:18:51.879Z,6.60
2019-05-01T20:21:21.919Z,7.53
2019-05-01T20:23:51.983Z,8.20
2019-05-01T20:26:22.029Z,7.17
2019-05-01T20:28:52.062Z,11.53
2019-05-01T20:31:23.414Z,4.43
2019-05-01T20:33:53.824Z,7.83
2019-05-01T20:36:23.919Z,6.33
2019-05-01T20:38:53.952Z,7.00
2019-05-01T20:41:24.002Z,6.27
2019-05-01T20:43:54.116Z,9.33
2019-05-01T20:46:26.094Z,8.00
2019-05-01T20:49:00.901Z,5.27
2019-05-01T20:51:28.669Z,4.90
2019-05-01T20:53:58.790Z,6.80
2019-05-01T20:56:36.715Z,4.57
2019-05-01T20:59:06.769Z,4.87
2019-05-01T21:01:36.885Z,7.03
2019-05-01T21:04:25.889Z,7.27
2019-05-01T21:07:29.824Z,8.83
2019-05-01T21:10:00.800Z,6.93
2019-05-01T21:12:30.901Z,6.30
2019-05-01T21:15:01.036Z,9.80
2019-05-01T21:17:31.190Z,9.47
2019-05-01T21:20:01.221Z,11.17
2019-05-01T21:22:33.295Z,8.87
2019-05-01T21:25:04.649Z,9.37
2019-05-01T21:27:34.842Z,7.30
2019-05-01T21:30:05.329Z,4.03
2019-05-01T21:32:36.470Z,7.03
2019-05-01T21:35:06.513Z,6.27
2019-05-01T21:37:36.553Z,6.40
2019-05-01T21:40:07.152Z,5.33
2019-05-01T21:42:37.184Z,9.43
2019-05-01T21:45:07.283Z,9.93
2019-05-01T21:47:37.373Z,13.50
2019-05-01T21:50:07.424Z,8.30
2019-05-01T21:52:37.493Z,4.33
2019-05-01T21:55:07.541Z,3.97
2019-05-01T21:57:40.621Z,7.00
2019-05-01T22:00:09.341Z,7.00
2019-05-01T22:02:41.595Z,5.43
2019-05-01T22:05:12.732Z,15.60
2019-05-01T22:07:42.772Z,9.73
2019-05-01T22:10:12.788Z,6.53
2019-05-01T22:12:44.002Z,7.00
2019-05-01T22:15:25.313Z,7.70
2019-05-01T22:18:16.172Z,7.33
2019-05-01T22:20:51.749Z,6.93
2019-05-01T22:23:23.316Z,11.07
2019-05-01T22:25:55.783Z,7.70
2019-05-01T22:28:31.698Z,4.70
2019-05-01T22:31:35.814Z,4.93
2019-05-01T22:34:30.874Z,4.90
2019-05-01T22:37:00.908Z,6.13
2019-05-01T22:39:32.636Z,4.57
2019-05-01T22:42:02.673Z,4.77
2019-05-01T22:44:32.716Z,9.50
2019-05-01T22:47:02.763Z,4.13
2019-05-01T22:49:33.792Z,7.97
2019-05-01T22:52:03.833Z,8.00
2019-05-01T22:54:33.964Z,5.87
2019-05-01T22:57:03.997Z,6.20
2019-05-01T22:59:34.045Z,6.97
2019-05-01T23:02:11.293Z,8.37
2019-05-01T23:04:41.325Z,6.27
2019-05-01T23:07:11.793Z,6.40
2019-05-01T23:09:43.155Z,6.17
2019-05-01T23:12:13.230Z,7.57
2019-05-01T23:14:43.265Z,7.80
2019-05-01T23:17:20.436Z,5.63
2019-05-01T23:19:53.338Z,7.73
2019-05-01T23:22:24.170Z,7.07
2019-05-01T23:24:54.201Z,6.13
2019-05-01T23:27:28.941Z,6.87
2019-05-01T23:29:56.953Z,6.57
2019-05-01T23:32:27.014Z,5.20
2019-05-01T23:34:57.058Z,4.50
2019-05-01T23:37:27.124Z,5.97
2019-05-01T23:39:57.147Z,7.97
2019-05-01T23:42:27.175Z,7.37
2019-05-01T23:44:57.298Z,3.47
2019-05-01T23:47:27.365Z,6.90
2019-05-01T23:49:57.392Z,7.83
2019-05-01T23:52:27.415Z,4.77
2019-05-01T23:54:57.460Z,6.23
2019-05-01T23:57:27.493Z,8.13
2019-05-01T23:59:57.565Z,7.13
